Date,TemperatureHighF,TemperatureAvgF,TemperatureLowF,DewpointHighF,DewpointAvgF,DewpointLowF,HumidityHigh,HumidityAvg,HumidityLow,PressureMaxIn,PressureMinIn,WindSpeedMaxMPH,WindSpeedAvgMPH,GustSpeedMaxMPH,PrecipitationSumIn
2013-11-1,53.3,45.2,39.5,27.8,25.8,23.8,59,47,33,30.05,29.87,26,10,26,0.00
2013-11-2,53.0,39.1,27.6,33.2,28.2,23.7,87,66,43,30.01,29.54,19,3,19,0.00
2013-11-3,43.2,37.3,27.4,34.2,24.5,13.8,82,61,32,29.79,29.52,26,5,26,0.00
2013-11-4,39.1,30.9,22.5,25.5,19.1,13.7,89,63,38,29.94,29.79,24,3,24,0.00
2013-11-5,41.2,29.4,16.2,24.9,16.6,10.5,94,63,29,30.00,29.90,37,7,37,0.00
2013-11-6,46.9,36.3,26.9,24.0,20.4,16.7,72,54,36,30.16,29.94,32,4,32,0.00
2013-11-7,44.6,34.1,23.4,28.6,24.3,17.8,82,68,49,30.16,29.66,17,2,17,0.00
2013-11-8,51.3,43.8,32.3,33.7,25.2,20.0,90,51,32,29.89,29.61,34,12,42,0.01
2013-11-9,47.7,40.5,30.2,27.9,25.4,22.7,75,55,41,30.07,29.89,21,3,26,0.00
2013-11-10,44.7,35.4,28.4,32.5,27.8,23.1,90,74,62,30.08,29.98,17,1,17,0.00
2013-11-11,37.5,30.6,26.2,28.9,26.2,23.6,92,84,70,30.36,30.08,17,3,21,0.00
2013-11-12,54.9,36.7,22.9,35.5,28.4,21.1,100,75,44,30.36,30.13,18,2,18,0.00
2013-11-13,49.6,40.9,31.7,34.6,31.1,23.4,83,69,51,30.14,29.93,23,2,23,0.00
2013-11-14,48.3,36.3,27.7,35.3,27.8,22.3,85,72,51,30.01,29.63,16,1,16,0.00
2013-11-15,48.4,36.5,24.1,29.4,21.4,17.0,88,58,31,29.64,29.33,33,10,33,0.00
2013-11-16,46.2,38.6,31.6,27.9,21.9,18.6,84,52,35,29.45,29.23,32,10,32,0.00
2013-11-17,45.2,36.6,29.3,27.0,16.0,12.8,82,44,29,29.86,29.45,40,9,40,0.00
2013-11-18,52.6,38.5,26.1,22.9,18.5,13.2,64,45,28,29.92,29.71,23,4,23,0.00
2013-11-19,57.3,44.2,28.4,31.0,25.8,15.9,65,49,35,29.72,29.57,36,8,36,0.00
2013-11-20,49.8,26.6,11.4,29.2,17.5,5.9,88,70,43,30.13,29.63,31,12,40,0.00
2013-11-21,19.5,11.6,2.8,11.4,5.9,-0.5,88,78,65,30.35,30.11,14,1,14,0.00
2013-11-22,26.9,9.3,-2.8,12.9,4.3,-6.6,90,81,54,30.41,30.32,6,0,6,0.00
2013-11-23,24.0,12.7,2.6,16.0,7.5,-0.9,93,80,67,30.41,30.10,8,0,8,0.00
2013-11-24,32.8,18.6,5.0,19.7,12.2,0.9,90,77,54,30.10,29.94,9,0,9,0.00
2013-11-25,41.7,28.0,17.7,27.8,20.8,12.7,85,75,56,30.21,30.03,13,1,13,0.00
2013-11-26,39.7,28.4,20.2,27.9,22.5,17.2,90,79,61,30.23,30.03,12,0,12,0.00
2013-11-27,45.4,31.9,25.1,30.7,25.1,20.7,90,77,55,30.03,29.94,10,1,10,0.00
2013-11-28,38.6,29.0,18.6,30.6,24.2,15.1,94,82,72,30.01,29.93,8,0,8,0.00
2013-11-29,46.2,35.9,25.7,33.6,28.4,22.9,90,75,50,30.01,29.93,22,2,22,0.00
2013-11-30,47.8,42.4,30.1,32.4,28.8,24.8,81,59,46,30.04,29.95,29,9,37,0.00